Time;durP1;ratioP1;P1;durP2;ratioP2;P2;SDS_P1;SDS_P2;PMS_P1;PMS_P2;Temp;Humidity;BMP_temperature;BMP_pressure;BME280_temperature;BME280_humidity;BME280_pressure;Samples;Min_cycle;Max_cycle;Signal;HPM_P1;HPM_P2
2024/02/09 00:00:08;;;;;;;2.63;1.60;;;;;;;7.50;72.97;99417.09;4944338;28;99235;-69
2024/02/09 00:02:35;;;;;;;2.17;1.85;;;;;;;7.41;72.58;99407.00;4945432;28;102327;-70
2024/02/09 00:05:02;;;;;;;2.00;1.52;;;;;;;7.44;72.81;99409.47;4944649;28;98398;-70
2024/02/09 00:07:28;;;;;;;3.42;1.77;;;;;;;7.49;72.32;99420.63;4936675;28;97039;-68
2024/02/09 00:09:56;;;;;;;2.40;1.85;;;;;;;7.28;73.12;99418.09;4942736;28;99037;-69
2024/02/09 00:12:24;;;;;;;3.60;1.85;;;;;;;7.35;73.04;99407.22;4941422;28;99134;-69
2024/02/09 00:14:50;;;;;;;2.17;1.60;;;;;;;7.39;73.06;99403.56;4947167;28;97638;-69
2024/02/09 00:17:17;;;;;;;2.17;1.67;;;;;;;7.37;72.73;99392.25;4946227;28;97640;-68
2024/02/09 00:19:43;;;;;;;3.08;1.95;;;;;;;7.31;73.49;99394.31;4946294;28;99352;-68
2024/02/09 00:22:11;;;;;;;2.78;1.63;;;;;;;7.30;73.93;99395.22;4946686;28;99148;-68
2024/02/09 00:24:39;;;;;;;2.80;1.90;;;;;;;7.31;73.65;99384.66;4947014;28;97617;-68
2024/02/09 00:27:07;;;;;;;2.75;1.75;;;;;;;7.45;73.48;99378.78;4949169;28;97143;-69
2024/02/09 00:29:34;;;;;;;3.30;1.98;;;;;;;7.44;73.90;99377.94;4942085;28;97821;-68
2024/02/09 00:32:00;;;;;;;3.08;2.40;;;;;;;7.51;73.18;99382.00;4941803;28;102214;-68
2024/02/09 00:34:26;;;;;;;2.45;2.25;;;;;;;7.47;73.00;99367.31;4945901;28;97550;-69
2024/02/09 00:36:55;;;;;;;3.67;2.55;;;;;;;7.44;73.74;99375.31;4947204;28;97424;-69
2024/02/09 00:39:22;;;;;;;2.58;2.25;;;;;;;7.41;73.27;99380.72;4946366;28;101875;-68
2024/02/09 00:41:51;;;;;;;3.72;2.53;;;;;;;7.33;73.87;99372.31;4947003;28;101349;-68
2024/02/09 00:44:19;;;;;;;3.00;2.13;;;;;;;7.42;73.80;99366.63;4945919;28;97353;-70
2024/02/09 00:46:46;;;;;;;2.33;2.13;;;;;;;7.44;73.53;99358.69;4946100;28;98588;-69
2024/02/09 00:49:13;;;;;;;3.28;2.70;;;;;;;7.55;73.12;99357.28;4947646;28;99809;-69
2024/02/09 00:51:40;;;;;;;3.10;2.70;;;;;;;7.39;73.70;99356.28;4947515;28;98009;-70
2024/02/09 00:54:06;;;;;;;2.95;2.42;;;;;;;7.35;73.78;99354.69;4945685;28;96958;-70
2024/02/09 00:56:33;;;;;;;5.60;3.05;;;;;;;7.43;73.96;99355.19;4947429;28;97249;-69
2024/02/09 00:59:01;;;;;;;4.07;2.92;;;;;;;7.50;73.33;99347.91;4949871;28;101506;-69
2024/02/09 01:01:32;;;;;;;3.03;2.70;;;;;;;7.51;73.33;99345.19;4947990;28;102367;-69
2024/02/09 01:04:00;;;;;;;5.70;2.85;;;;;;;7.32;74.26;99346.94;4948112;28;97173;-70
2024/02/09 01:06:26;;;;;;;4.93;2.83;;;;;;;7.11;74.68;99346.13;4948189;28;96820;-70
2024/02/09 01:08:53;;;;;;;5.45;3.33;;;;;;;7.24;75.42;99346.44;4947108;28;98841;-70
2024/02/09 01:11:20;;;;;;;5.93;3.45;;;;;;;7.21;75.48;99343.94;4947807;28;99124;-69
2024/02/09 02:46:28;;;;;;;6.18;3.67;;;;;;;7.57;75.02;99228.41;4950065;28;98138;-69
2024/02/09 03:05:24;;;;;;;6.18;4.22;;;;;;;7.07;78.11;99191.34;4949521;28;97204;-69
2024/02/09 03:07:52;;;;;;;9.07;4.60;;;;;;;7.13;78.22;99193.69;4947969;28;100729;-69
2024/02/09 03:10:21;;;;;;;6.13;4.07;;;;;;;7.10;77.95;99186.81;4946783;28;99133;-69
2024/02/09 03:12:47;;;;;;;6.50;3.83;;;;;;;7.19;76.91;99185.53;4938675;28;97576;-70
2024/02/09 03:15:14;;;;;;;4.47;3.35;;;;;;;7.02;78.15;99174.97;4951156;28;96942;-69
2024/02/09 03:17:40;;;;;;;5.93;3.72;;;;;;;6.92;78.00;99169.25;4944182;28;99202;-69
2024/02/09 03:20:08;;;;;;;4.40;3.70;;;;;;;6.89;78.25;99168.56;4945959;28;102450;-70
2024/02/09 03:22:35;;;;;;;4.55;3.38;;;;;;;6.98;78.02;99165.50;4947679;28;96818;-70
2024/02/09 03:25:04;;;;;;;4.85;3.63;;;;;;;6.94;78.54;99158.69;4946666;28;97198;-69
2024/02/09 03:27:33;;;;;;;6.72;3.83;;;;;;;6.92;78.21;99163.16;4943578;28;98984;-69
2024/02/09 03:30:00;;;;;;;5.95;4.00;;;;;;;7.09;77.22;99164.06;4942386;28;99340;-69
2024/02/09 03:32:27;;;;;;;5.00;3.50;;;;;;;7.06;77.19;99155.50;4949007;28;97170;-69
2024/02/09 03:34:54;;;;;;;4.93;3.70;;;;;;;7.08;77.28;99161.53;4945457;28;98104;-69
2024/02/09 03:37:24;;;;;;;5.53;3.65;;;;;;;7.03;77.60;99153.00;4947313;28;100854;-69
2024/02/09 03:39:53;;;;;;;6.18;3.13;;;;;;;6.96;77.52;99159.47;4947144;28;99024;-69
2024/02/09 03:42:21;;;;;;;5.53;4.00;;;;;;;7.04;77.91;99144.22;4946411;28;97647;-69
2024/02/09 03:44:49;;;;;;;5.35;3.72;;;;;;;6.94;77.72;99133.28;4945837;28;96781;-69
2024/02/09 03:47:16;;;;;;;6.55;3.85;;;;;;;6.82;78.64;99131.22;4946527;28;100732;-69
2024/02/09 03:49:42;;;;;;;5.70;3.58;;;;;;;7.08;77.91;99132.66;4951592;28;98744;-69
2024/02/09 03:52:08;;;;;;;5.25;3.35;;;;;;;7.14;77.58;99135.00;4944242;28;96819;-69
2024/02/09 03:54:35;;;;;;;4.43;3.67;;;;;;;7.13;76.79;99142.03;4948074;28;98856;-69
2024/02/09 03:57:01;;;;;;;5.10;3.90;;;;;;;7.20;77.17;99147.84;4951144;28;100949;-69
2024/02/09 03:59:30;;;;;;;6.47;4.20;;;;;;;7.39;76.64;99139.94;4947917;28;99418;-69
2024/02/09 04:01:59;;;;;;;5.32;3.70;;;;;;;7.32;76.96;99142.00;4951630;28;97107;-70
2024/02/09 04:04:26;;;;;;;6.75;4.05;;;;;;;7.51;76.42;99144.59;4951330;28;98379;-69
2024/02/09 04:06:52;;;;;;;4.93;3.88;;;;;;;7.32;76.50;99149.03;4947383;28;97891;-69
2024/02/09 04:09:19;;;;;;;8.07;4.32;;;;;;;7.16;77.95;99141.84;4954242;28;99052;-69
2024/02/09 04:11:45;;;;;;;4.57;3.75;;;;;;;7.27;78.01;99145.78;4945188;28;97346;-69
2024/02/09 04:14:13;;;;;;;6.15;4.78;;;;;;;7.11;77.85;99135.97;4945149;28;97005;-71
2024/02/09 04:16:39;;;;;;;6.13;4.25;;;;;;;7.13;79.17;99138.53;4948303;28;99183;-69
2024/02/09 04:19:07;;;;;;;6.20;3.80;;;;;;;7.18;78.97;99131.28;4945490;28;98806;-69
2024/02/09 04:21:34;;;;;;;7.45;3.95;;;;;;;7.21;79.29;99139.03;4945243;28;96945;-69
2024/02/09 04:24:00;;;;;;;4.78;3.90;;;;;;;6.93;80.83;99142.09;4946452;28;97168;-70
2024/02/09 04:26:26;;;;;;;7.72;4.90;;;;;;;7.19;79.91;99131.22;4946077;28;100459;-69
2024/02/09 04:28:54;;;;;;;7.70;4.47;;;;;;;7.23;80.64;99124.03;4944775;28;98946;-69
2024/02/09 04:31:20;;;;;;;7.55;4.82;;;;;;;6.95;80.93;99135.00;4942778;28;97310;-69
2024/02/09 04:33:47;;;;;;;5.05;4.05;;;;;;;7.07;81.14;99121.28;4945475;28;97218;-69
2024/02/09 04:36:15;;;;;;;7.57;4.72;;;;;;;7.00;80.74;99117.25;4941113;28;98816;-70
2024/02/09 04:38:42;;;;;;;7.22;4.72;;;;;;;7.22;80.10;99105.75;4943883;28;98956;-69
2024/02/09 04:41:08;;;;;;;8.40;4.85;;;;;;;7.41;78.99;99110.03;4940709;28;97068;-70
2024/02/09 04:43:35;;;;;;;6.47;4.40;;;;;;;7.49;77.80;99097.34;4945607;28;96752;-70
2024/02/09 04:46:01;;;;;;;7.35;4.53;;;;;;;7.39;78.73;99085.59;4945655;28;97374;-70
2024/02/09 04:48:28;;;;;;;6.70;4.60;;;;;;;7.32;78.27;99085.97;4947137;28;99171;-70
2024/02/09 04:50:55;;;;;;;5.50;4.22;;;;;;;7.24;78.29;99074.97;4947481;28;96964;-69
2024/02/09 04:53:23;;;;;;;6.05;4.03;;;;;;;7.08;79.30;99083.59;4942381;28;97044;-69
2024/02/09 04:55:50;;;;;;;6.35;4.20;;;;;;;7.06;79.24;99071.47;4943795;28;102375;-69
2024/02/09 04:58:17;;;;;;;6.53;4.40;;;;;;;7.14;79.03;99059.66;4944575;28;99477;-69
2024/02/09 05:00:43;;;;;;;6.30;4.57;;;;;;;7.07;78.95;99065.28;4948051;28;98985;-69
2024/02/09 05:03:09;;;;;;;5.50;4.20;;;;;;;6.87;80.39;99060.13;4947362;28;97611;-69
2024/02/09 05:05:36;;;;;;;5.88;3.72;;;;;;;7.11;79.40;99044.03;4945992;28;99137;-69
2024/02/09 05:08:02;;;;;;;4.78;3.70;;;;;;;7.05;78.98;99046.13;4946301;28;98036;-69
2024/02/09 05:10:30;;;;;;;6.18;4.30;;;;;;;6.95;80.04;99042.25;4945121;28;97436;-69
2024/02/09 05:13:02;;;;;;;6.15;4.00;;;;;;;7.16;79.22;99033.31;4941908;28;97892;-69
2024/02/09 05:15:28;;;;;;;7.10;4.10;;;;;;;7.09;79.28;99021.38;4944444;28;98929;-69
2024/02/09 05:17:55;;;;;;;5.35;3.55;;;;;;;7.21;78.75;99012.94;4940755;28;99447;-69
2024/02/09 05:20:21;;;;;;;5.43;3.80;;;;;;;7.31;77.73;99015.94;4951554;28;97400;-70
2024/02/09 05:22:48;;;;;;;5.32;3.40;;;;;;;7.32;77.14;99010.63;4947809;28;96833;-69
2024/02/09 05:25:14;;;;;;;4.53;2.92;;;;;;;6.80;78.46;99013.16;4946336;28;98862;-69
2024/02/09 05:27:45;;;;;;;5.70;3.90;;;;;;;6.59;81.14;99008.06;4950483;28;99205;-69
2024/02/09 05:30:13;;;;;;;7.38;4.13;;;;;;;7.11;79.45;99004.66;4948823;28;97166;-69
2024/02/09 05:32:41;;;;;;;5.63;4.10;;;;;;;7.15;78.60;98997.47;4949069;28;97382;-69
2024/02/09 05:35:08;;;;;;;4.35;3.72;;;;;;;7.00;79.51;98985.09;4950738;28;98917;-69
2024/02/09 05:37:34;;;;;;;4.90;3.45;;;;;;;7.08;78.98;98989.06;4945213;28;97727;-68
2024/02/09 05:40:04;;;;;;;4.82;3.47;;;;;;;7.17;78.38;98993.84;4951934;28;97015;-68
2024/02/09 05:42:31;;;;;;;4.80;3.95;;;;;;;7.46;77.48;98986.28;4943958;28;97681;-67
2024/02/09 05:44:58;;;;;;;6.55;3.60;;;;;;;7.22;76.87;98982.28;4944042;28;99462;-69
2024/02/09 05:47:30;;;;;;;4.97;3.53;;;;;;;7.39;77.87;98972.59;4948662;28;98913;-68
2024/02/09 05:49:58;;;;;;;5.30;3.92;;;;;;;7.46;77.09;98968.75;4944233;28;96835;-68
2024/02/09 05:52:24;;;;;;;4.22;3.40;;;;;;;7.27;77.32;98975.84;4945404;28;98521;-69
2024/02/09 05:54:51;;;;;;;5.82;3.58;;;;;;;7.42;77.31;98971.56;4945812;28;99357;-69
2024/02/09 05:57:17;;;;;;;5.05;3.25;;;;;;;7.37;77.12;98974.44;4947299;28;99183;-68
2024/02/09 05:59:44;;;;;;;4.85;3.33;;;;;;;7.29;77.32;98960.84;4937526;28;97194;-69
2024/02/09 06:02:12;;;;;;;3.38;3.03;;;;;;;7.36;77.09;98954.34;4942228;28;97910;-69
2024/02/09 06:04:38;;;;;;;4.97;3.38;;;;;;;7.37;76.98;98953.44;4945435;28;99247;-68
2024/02/09 06:07:05;;;;;;;4.65;3.53;;;;;;;7.24;77.51;98949.72;4947361;28;98636;-68
2024/02/09 06:09:36;;;;;;;6.03;3.83;;;;;;;7.30;77.50;98956.44;4943208;28;97267;-69
2024/02/09 06:12:03;;;;;;;5.72;3.65;;;;;;;7.32;77.36;98951.97;4944393;28;97319;-73
2024/02/09 06:14:30;;;;;;;5.93;3.30;;;;;;;7.37;77.39;98948.19;4941698;28;99406;-70
2024/02/09 06:16:56;;;;;;;4.10;3.47;;;;;;;7.26;77.33;98937.38;4942550;28;98855;-70
2024/02/09 06:19:27;;;;;;;4.22;2.95;;;;;;;7.13;78.11;98938.91;4946812;28;96810;-69
2024/02/09 06:21:55;;;;;;;3.83;3.05;;;;;;;7.26;77.96;98945.25;4952307;28;97081;-69
2024/02/09 06:24:24;;;;;;;3.55;3.08;;;;;;;7.13;78.48;98945.03;4948676;28;99297;-70
2024/02/09 06:26:51;;;;;;;4.63;3.30;;;;;;;7.39;77.55;98946.31;4951828;28;98814;-69
2024/02/09 06:29:18;;;;;;;4.40;3.13;;;;;;;7.36;77.78;98949.09;4950028;28;96829;-69
2024/02/09 06:31:45;;;;;;;4.45;3.22;;;;;;;7.25;78.26;98954.06;4949113;28;98555;-69
2024/02/09 06:34:12;;;;;;;4.57;3.40;;;;;;;7.12;78.34;98945.09;4948777;28;99282;-70
2024/02/09 06:36:39;;;;;;;4.28;3.08;;;;;;;7.37;77.82;98949.94;4952765;28;98874;-70
2024/02/09 06:39:08;;;;;;;3.50;2.60;;;;;;;7.60;76.71;98942.59;4957269;28;97599;-70
2024/02/09 06:41:35;;;;;;;3.42;2.63;;;;;;;7.30;78.12;98938.91;4949053;28;97554;-69
2024/02/09 06:44:01;;;;;;;3.85;2.72;;;;;;;7.28;76.88;98938.16;4946775;28;98842;-69
2024/02/09 06:46:28;;;;;;;4.00;2.60;;;;;;;7.63;76.62;98944.19;4949822;28;98825;-69
2024/02/09 06:48:56;;;;;;;3.15;2.70;;;;;;;7.47;77.04;98940.69;4950376;28;96816;-69
2024/02/09 06:51:23;;;;;;;4.38;2.42;;;;;;;7.22;78.22;98936.66;4947051;28;97303;-69
2024/02/09 06:53:51;;;;;;;4.25;2.70;;;;;;;7.28;78.52;98935.53;4946319;28;98883;-69
2024/02/09 06:56:18;;;;;;;5.80;3.08;;;;;;;7.46;78.19;98938.97;4952874;28;97771;-70
2024/02/09 06:58:45;;;;;;;8.45;4.00;;;;;;;7.61;76.91;98936.38;4948378;28;98005;-69
2024/02/09 07:01:11;;;;;;;4.80;2.97;;;;;;;7.73;77.04;98941.97;4946913;28;98301;-69
2024/02/09 07:03:38;;;;;;;6.75;2.92;;;;;;;7.67;76.37;98932.63;4949417;28;99634;-69
2024/02/09 07:06:07;;;;;;;3.83;2.50;;;;;;;7.42;76.94;98942.66;4950941;28;98559;-69
2024/02/09 07:08:39;;;;;;;4.03;2.58;;;;;;;7.51;76.73;98932.56;4947642;28;98895;-69
2024/02/09 07:11:11;;;;;;;9.95;2.90;;;;;;;7.58;76.58;98926.06;4944903;28;97240;-69
2024/02/09 07:13:38;;;;;;;5.32;3.08;;;;;;;7.63;76.89;98922.31;4945514;28;102200;-76
2024/02/09 07:16:05;;;;;;;3.80;2.35;;;;;;;7.71;76.48;98928.03;4948567;28;101675;-75
2024/02/09 07:18:33;;;;;;;3.88;2.65;;;;;;;7.53;76.52;98922.81;4943424;28;98052;-76
2024/02/09 07:20:59;;;;;;;4.93;1.88;;;;;;;7.68;76.92;98908.00;4946291;28;97684;-77
2024/02/09 07:23:27;;;;;;;3.03;2.30;;;;;;;7.59;76.88;98916.38;4944423;28;99915;-77
2024/02/09 07:25:54;;;;;;;4.40;2.13;;;;;;;7.57;77.27;98910.34;4943930;28;98901;-76
2024/02/09 07:28:22;;;;;;;4.63;2.40;;;;;;;7.48;77.65;98914.31;4943842;28;97506;-75
2024/02/09 07:30:48;;;;;;;3.05;2.05;;;;;;;7.66;76.55;98912.50;4937728;28;97678;-76
2024/02/09 07:33:15;;;;;;;3.00;1.95;;;;;;;7.78;76.29;98903.13;4929819;28;98801;-76
2024/02/09 07:35:42;;;;;;;3.58;2.22;;;;;;;7.71;76.64;98901.75;4932029;28;100832;-76
2024/02/09 07:38:08;;;;;;;3.65;2.22;;;;;;;7.62;76.99;98903.06;4932451;28;100572;-76
2024/02/09 07:40:35;;;;;;;2.97;2.30;;;;;;;7.75;76.94;98895.38;4938568;28;97305;-75
2024/02/09 07:43:01;;;;;;;2.33;1.83;;;;;;;7.69;77.11;98893.94;4944911;28;97555;-76
2024/02/09 07:45:29;;;;;;;2.13;1.83;;;;;;;7.76;76.41;98894.47;4944495;28;99074;-76
2024/02/09 07:47:55;;;;;;;2.15;1.73;;;;;;;7.78;76.78;98892.59;4947156;28;96774;-75
2024/02/09 07:50:22;;;;;;;1.70;1.40;;;;;;;7.86;75.86;98882.53;4948184;28;100630;-76
2024/02/09 07:52:49;;;;;;;1.98;1.50;;;;;;;7.72;76.44;98882.41;4947682;28;99430;-77
2024/02/09 07:55:18;;;;;;;14.98;2.28;;;;;;;7.47;77.61;98875.84;4949135;28;98586;-77
2024/02/09 07:57:44;;;;;;;2.88;1.58;;;;;;;7.49;78.06;98888.88;4948255;28;97122;-77
2024/02/09 08:00:14;;;;;;;1.92;1.70;;;;;;;7.65;78.28;98879.25;4949352;28;96923;-75
2024/02/09 08:02:42;;;;;;;3.80;1.88;;;;;;;7.66;77.18;98880.13;4947613;28;98901;-76
2024/02/09 08:05:17;;;;;;;2.15;1.70;;;;;;;7.91;75.97;98880.50;4943927;28;98913;-69
2024/02/09 08:07:44;;;;;;;2.65;1.75;;;;;;;8.00;75.89;98885.28;4946013;28;97092;-70
2024/02/09 08:10:11;;;;;;;1.88;1.58;;;;;;;7.98;76.25;98879.22;4945878;28;97255;-72
2024/02/09 08:12:38;;;;;;;2.67;1.92;;;;;;;7.87;76.29;98874.56;4942958;28;98991;-70
2024/02/09 08:15:06;;;;;;;3.70;1.80;;;;;;;7.91;76.33;98873.47;4951285;28;98748;-71
2024/02/09 08:17:33;;;;;;;2.00;1.77;;;;;;;7.91;77.06;98868.19;4946445;28;96787;-71
2024/02/09 08:20:03;;;;;;;2.83;1.50;;;;;;;7.94;76.33;98859.31;4945390;28;98032;-69
2024/02/09 08:22:32;;;;;;;2.53;2.25;;;;;;;8.06;75.62;98858.63;4943783;28;99134;-70
2024/02/09 08:24:59;;;;;;;12.93;2.42;;;;;;;8.00;75.19;98856.34;4951837;28;98760;-69
2024/02/09 08:27:25;;;;;;;1.88;1.60;;;;;;;7.87;76.53;98860.56;4943841;28;96800;-69
2024/02/09 08:29:56;;;;;;;2.00;1.50;;;;;;;7.97;76.52;98853.88;4946163;28;99000;-69
2024/02/09 08:32:22;;;;;;;1.67;1.50;;;;;;;7.94;76.13;98854.03;4932629;28;99069;-70
2024/02/09 08:34:51;;;;;;;3.30;1.90;;;;;;;7.82;76.67;98855.53;4938886;28;99292;-70
2024/02/09 08:37:19;;;;;;;2.15;1.73;;;;;;;8.01;77.19;98855.38;4945273;28;98900;-69
2024/02/09 08:39:46;;;;;;;2.53;1.60;;;;;;;8.15;76.26;98844.94;4946285;28;97860;-70
2024/02/09 08:42:13;;;;;;;2.00;1.65;;;;;;;8.15;75.81;98841.47;4942047;28;99351;-70
2024/02/09 08:44:40;;;;;;;3.10;1.80;;;;;;;8.07;75.45;98849.81;4944781;28;102943;-70
2024/02/09 08:47:07;;;;;;;2.50;1.60;;;;;;;7.90;76.51;98842.81;4943863;28;97924;-69
2024/02/09 08:49:33;;;;;;;3.58;1.65;;;;;;;8.23;75.80;98844.53;4930280;28;100082;-70
2024/02/09 08:52:00;;;;;;;2.00;1.67;;;;;;;8.33;75.30;98848.38;4937767;28;99335;-70
2024/02/09 08:54:29;;;;;;;3.95;1.80;;;;;;;8.24;75.96;98857.59;4943374;28;99509;-70
2024/02/09 08:56:55;;;;;;;2.72;1.90;;;;;;;7.99;76.02;98846.75;4942882;28;97905;-69
2024/02/09 08:59:22;;;;;;;2.63;1.67;;;;;;;8.25;75.80;98835.63;4943301;28;97272;-70
2024/02/09 09:01:48;;;;;;;14.63;4.10;;;;;;;8.32;76.03;98830.91;4946607;28;99275;-69
2024/02/09 09:04:15;;;;;;;3.20;2.00;;;;;;;8.53;75.51;98834.94;4937907;28;99276;-71
2024/02/09 09:06:42;;;;;;;2.72;1.90;;;;;;;8.62;74.80;98825.66;4946617;28;97325;-68
2024/02/09 09:09:08;;;;;;;7.60;1.80;;;;;;;8.52;74.59;98827.97;4941666;28;98147;-70
2024/02/09 09:11:36;;;;;;;1.70;1.58;;;;;;;8.15;75.89;98823.91;4945742;28;99296;-70
2024/02/09 09:14:03;;;;;;;6.03;1.85;;;;;;;8.28;76.14;98827.53;4946195;28;98897;-70
2024/02/09 09:16:30;;;;;;;4.15;2.13;;;;;;;8.16;76.51;98815.09;4943369;28;97124;-70
2024/02/09 09:18:56;;;;;;;4.57;2.22;;;;;;;8.53;75.40;98820.94;4947451;28;96743;-72
2024/02/09 09:21:23;;;;;;;2.92;1.88;;;;;;;8.50;75.35;98811.41;4946242;28;98370;-70
2024/02/09 09:23:51;;;;;;;2.30;1.90;;;;;;;8.47;75.54;98813.41;4941585;28;99119;-68
2024/02/09 09:26:18;;;;;;;3.50;1.75;;;;;;;8.53;75.62;98807.78;4944194;28;97889;-73
2024/02/09 09:28:46;;;;;;;3.35;1.58;;;;;;;8.43;75.58;98814.50;4945431;28;97616;-71
2024/02/09 09:31:12;;;;;;;2.78;1.98;;;;;;;8.36;75.80;98804.31;4946174;28;99034;-70
2024/02/09 09:33:39;;;;;;;3.15;1.95;;;;;;;8.40;75.44;98790.03;4945347;28;99422;-70
2024/02/09 09:36:06;;;;;;;26.05;6.57;;;;;;;8.24;76.35;98806.75;4940144;28;96903;-76
2024/02/09 09:38:33;;;;;;;3.58;2.13;;;;;;;8.12;77.22;98808.31;4941713;28;96935;-77
2024/02/09 09:41:00;;;;;;;5.13;2.03;;;;;;;8.25;76.77;98798.78;4943490;28;97748;-78
2024/02/09 09:43:26;;;;;;;3.90;1.77;;;;;;;8.56;75.44;98804.94;4941567;28;98412;-77
2024/02/09 09:45:57;;;;;;;4.05;2.45;;;;;;;8.43;76.53;98796.91;4943774;28;97233;-76
2024/02/09 09:48:24;;;;;;;2.17;1.80;;;;;;;8.64;75.74;98808.00;4944193;28;97250;-76
2024/02/09 09:50:52;;;;;;;3.05;1.92;;;;;;;8.43;75.67;98798.69;4945792;28;99031;-77
2024/02/09 09:53:26;;;;;;;3.90;2.33;;;;;;;8.51;76.42;98804.38;4950255;28;98955;-70
2024/02/09 09:55:54;;;;;;;5.30;2.03;;;;;;;8.54;76.05;98809.44;4953057;28;97073;-70
2024/02/09 09:58:21;;;;;;;2.70;1.88;;;;;;;8.41;76.21;98806.66;4950837;28;97521;-70
2024/02/09 10:00:49;;;;;;;3.35;1.88;;;;;;;8.33;76.84;98801.03;4951818;28;97778;-70
2024/02/09 10:03:17;;;;;;;2.28;1.95;;;;;;;8.44;76.73;98795.13;4951989;28;101773;-70
2024/02/09 10:05:45;;;;;;;3.13;1.90;;;;;;;8.55;77.12;98795.34;4950785;28;96951;-71
2024/02/09 10:08:13;;;;;;;2.90;1.90;;;;;;;8.57;76.05;98806.66;4951665;28;98372;-70
2024/02/09 10:10:41;;;;;;;2.80;1.67;;;;;;;8.17;77.47;98797.50;4945841;28;101138;-70
2024/02/09 10:13:11;;;;;;;3.25;1.63;;;;;;;8.25;78.39;98796.16;4945764;28;98871;-69
2024/02/09 10:15:38;;;;;;;3.50;2.00;;;;;;;8.47;77.67;98789.72;4951747;28;97775;-70
2024/02/09 10:18:05;;;;;;;3.25;2.30;;;;;;;8.69;77.47;98780.44;4950819;28;98867;-69
2024/02/09 10:20:32;;;;;;;4.00;2.15;;;;;;;8.75;76.47;98781.88;4951958;28;98066;-70
2024/02/09 10:22:59;;;;;;;4.43;2.42;;;;;;;8.74;76.65;98788.06;4943996;28;99628;-70
2024/02/09 10:25:25;;;;;;;5.18;2.83;;;;;;;8.67;77.50;98786.72;4951464;28;96778;-71
2024/02/09 10:27:52;;;;;;;4.43;2.38;;;;;;;8.55;77.76;98771.66;4949631;28;98851;-70
2024/02/09 10:30:18;;;;;;;7.03;2.78;;;;;;;8.63;76.65;98772.06;4949928;28;101386;-69
2024/02/09 10:32:45;;;;;;;2.42;1.92;;;;;;;8.54;77.26;98769.97;4951183;28;99489;-70
2024/02/09 10:35:11;;;;;;;3.35;2.00;;;;;;;8.67;77.08;98770.94;4952181;28;96753;-70
2024/02/09 10:37:39;;;;;;;3.53;2.28;;;;;;;8.76;76.47;98767.78;4950260;28;96786;-70
2024/02/09 10:40:06;;;;;;;3.08;1.95;;;;;;;8.57;77.43;98767.16;4949196;28;99266;-70
2024/02/09 10:42:37;;;;;;;3.22;1.92;;;;;;;8.85;76.25;98769.88;4948844;28;99551;-71
2024/02/09 10:45:08;;;;;;;5.78;3.15;;;;;;;8.92;76.38;98776.47;4949554;28;96810;-71
2024/02/09 10:47:37;;;;;;;3.15;2.15;;;;;;;9.07;75.57;98772.91;4950005;28;96765;-71
2024/02/09 10:50:06;;;;;;;4.32;2.65;;;;;;;8.94;76.58;98768.44;4948465;28;99174;-71
2024/02/09 10:52:37;;;;;;;2.72;2.28;;;;;;;9.26;75.52;98764.72;4950635;28;98805;-69
2024/02/09 10:55:06;;;;;;;6.82;2.42;;;;;;;9.44;73.96;98760.97;4950800;28;97543;-71
2024/02/09 10:57:34;;;;;;;3.55;2.63;;;;;;;9.24;74.74;98773.66;4946946;28;97815;-71
2024/02/09 11:00:01;;;;;;;3.78;2.63;;;;;;;9.10;75.54;98769.25;4948801;28;99505;-71
2024/02/09 11:02:30;;;;;;;3.00;2.28;;;;;;;8.79;76.39;98760.53;4950008;28;99276;-69
2024/02/09 11:04:58;;;;;;;4.18;2.85;;;;;;;9.25;76.28;98743.75;4947621;28;97151;-70
2024/02/09 11:07:26;;;;;;;18.65;5.20;;;;;;;9.65;74.47;98756.09;4946262;28;96855;-69
2024/02/09 11:09:53;;;;;;;7.32;2.83;;;;;;;9.39;74.56;98755.09;4943158;28;98871;-71
2024/02/09 11:12:20;;;;;;;10.32;2.50;;;;;;;9.30;74.00;98758.31;4947249;28;98862;-70
2024/02/09 11:14:47;;;;;;;10.23;3.08;;;;;;;9.41;74.94;98762.91;4948717;28;97192;-71
2024/02/09 11:17:18;;;;;;;8.93;3.47;;;;;;;9.11;76.36;98740.16;4948993;28;97126;-70
2024/02/09 11:19:45;;;;;;;4.90;3.25;;;;;;;9.66;75.12;98734.06;4946419;28;98904;-70
2024/02/09 11:22:13;;;;;;;4.22;3.28;;;;;;;9.29;75.65;98742.59;4946925;28;98862;-70
2024/02/09 11:24:45;;;;;;;10.10;3.67;;;;;;;9.87;73.76;98735.34;4948686;28;97244;-70
2024/02/09 11:27:11;;;;;;;6.63;3.15;;;;;;;9.75;74.79;98736.13;4947131;28;97187;-70
2024/02/09 11:29:39;;;;;;;3.60;2.97;;;;;;;10.00;74.01;98735.41;4942214;28;101251;-70
2024/02/09 11:32:06;;;;;;;8.23;3.28;;;;;;;9.87;74.15;98740.63;4943972;28;98021;-71
2024/02/09 11:34:35;;;;;;;119.38;15.80;;;;;;;9.95;73.09;98735.72;4945208;28;96803;-70
2024/02/09 11:37:02;;;;;;;46.92;11.00;;;;;;;9.66;74.10;98743.78;4945373;28;97269;-71
2024/02/09 11:39:29;;;;;;;17.83;4.68;;;;;;;9.49;75.09;98742.22;4945220;28;98866;-70
2024/02/09 11:41:55;;;;;;;5.13;3.67;;;;;;;9.49;75.90;98736.94;4947011;28;98905;-70
2024/02/09 11:44:22;;;;;;;5.05;3.42;;;;;;;9.72;75.10;98738.09;4944462;28;98342;-70
2024/02/09 11:46:52;;;;;;;7.10;4.10;;;;;;;9.60;75.30;98730.03;4945029;28;96879;-70
2024/02/09 11:49:20;;;;;;;18.42;5.03;;;;;;;9.83;75.15;98733.00;4940808;28;98952;-71
2024/02/09 11:51:47;;;;;;;16.38;5.45;;;;;;;9.89;75.50;98722.06;4939460;28;97537;-70
2024/02/09 11:54:15;;;;;;;30.90;6.60;;;;;;;9.95;75.32;98730.44;4943992;28;97764;-70
2024/02/09 11:56:44;;;;;;;16.27;4.50;;;;;;;10.19;74.54;98730.66;4945393;28;98311;-70
2024/02/09 11:59:11;;;;;;;12.20;3.75;;;;;;;10.00;75.20;98725.69;4942566;28;99122;-70
2024/02/09 12:01:39;;;;;;;16.73;4.63;;;;;;;10.05;75.17;98713.97;4944118;28;98722;-70
2024/02/09 12:04:08;;;;;;;5.32;3.83;;;;;;;9.93;74.82;98744.66;4944213;28;98224;-70
2024/02/09 12:06:36;;;;;;;10.40;3.97;;;;;;;10.15;74.36;98720.38;4943539;28;97408;-70
2024/02/09 12:09:04;;;;;;;5.57;3.97;;;;;;;10.11;74.44;98721.53;4945977;28;97940;-69
2024/02/09 12:11:31;;;;;;;5.28;3.92;;;;;;;10.18;75.30;98713.13;4944687;28;98805;-70
2024/02/09 12:13:57;;;;;;;5.13;4.47;;;;;;;10.35;73.73;98704.09;4945866;28;97231;-71
2024/02/09 12:16:24;;;;;;;77.60;35.60;;;;;;;10.18;74.31;98704.34;4947257;28;97178;-69
2024/02/09 12:18:54;;;;;;;7.63;5.13;;;;;;;10.56;73.11;98704.44;4946861;28;99185;-71
2024/02/09 12:21:22;;;;;;;7.53;4.40;;;;;;;10.91;72.40;98702.88;4945696;28;98731;-70
2024/02/09 12:23:50;;;;;;;10.18;5.10;;;;;;;10.86;71.71;98710.28;4946495;28;96756;-71
2024/02/09 12:26:18;;;;;;;5.57;4.50;;;;;;;10.30;73.91;98714.13;4945382;28;96914;-69
2024/02/09 12:28:45;;;;;;;6.55;4.47;;;;;;;10.44;73.48;98707.88;4942498;28;98164;-70
2024/02/09 12:31:14;;;;;;;6.60;5.00;;;;;;;10.33;74.48;98706.81;4944123;28;99585;-71
2024/02/09 12:33:44;;;;;;;9.85;5.55;;;;;;;10.85;73.31;98702.44;4943837;28;98054;-70
2024/02/09 12:36:13;;;;;;;9.63;5.57;;;;;;;10.65;73.35;98704.66;4945842;28;98390;-71
2024/02/09 12:38:42;;;;;;;8.70;4.85;;;;;;;10.41;74.17;98708.13;4945823;28;99006;-70
2024/02/09 12:41:08;;;;;;;7.88;4.65;;;;;;;10.48;74.21;98704.97;4945306;28;98854;-70
2024/02/09 12:43:35;;;;;;;7.60;5.40;;;;;;;10.51;74.46;98715.31;4946557;28;98015;-70
2024/02/09 12:46:02;;;;;;;11.13;5.55;;;;;;;10.32;75.65;98709.56;4944307;28;97781;-70
2024/02/09 12:48:28;;;;;;;6.78;5.47;;;;;;;10.50;74.76;98704.88;4947546;28;99388;-70
2024/02/09 12:50:56;;;;;;;9.07;6.28;;;;;;;10.54;75.09;98717.75;4944900;28;98866;-70
2024/02/09 12:53:22;;;;;;;12.70;6.85;;;;;;;10.54;74.64;98711.63;4946187;28;97535;-70
2024/02/09 12:55:50;;;;;;;9.45;6.57;;;;;;;10.57;74.89;98706.13;4946433;28;96930;-70
2024/02/09 12:58:19;;;;;;;10.88;6.47;;;;;;;10.44;75.38;98713.16;4947675;28;98999;-70
2024/02/09 13:00:45;;;;;;;10.75;6.57;;;;;;;10.17;76.25;98707.97;4943936;28;98781;-69
2024/02/09 13:03:12;;;;;;;13.48;7.40;;;;;;;10.25;76.82;98701.22;4941511;28;99383;-69
2024/02/09 13:05:39;;;;;;;11.02;6.82;;;;;;;10.61;75.96;98695.25;4943597;28;96867;-69
2024/02/09 13:08:06;;;;;;;10.45;7.32;;;;;;;10.41;76.32;98690.47;4942150;28;99539;-71
2024/02/09 13:10:33;;;;;;;18.63;9.25;;;;;;;10.40;76.90;98696.69;4944137;28;99253;-70
2024/02/09 13:13:06;;;;;;;11.05;7.30;;;;;;;10.51;76.80;98694.19;4945377;28;97534;-70
2024/02/09 13:15:33;;;;;;;13.65;6.85;;;;;;;10.73;75.80;98689.13;4945886;28;97284;-71
2024/02/09 13:18:08;;;;;;;10.23;6.68;;;;;;;10.97;74.62;98697.16;4946990;28;99316;-70
2024/02/09 13:20:35;;;;;;;10.93;7.25;;;;;;;10.75;75.21;98692.53;4938731;28;98908;-69
2024/02/09 13:23:01;;;;;;;10.30;6.68;;;;;;;10.51;76.68;98688.03;4943260;28;97975;-69
2024/02/09 13:25:35;;;;;;;12.07;7.22;;;;;;;10.81;75.92;98685.13;4938846;28;98153;-70
2024/02/09 13:28:04;;;;;;;11.15;7.55;;;;;;;10.68;76.03;98682.50;4946272;28;98911;-69